Time;durP1;ratioP1;P1;durP2;ratioP2;P2;SDS_P1;SDS_P2;PMS_P1;PMS_P2;Temp;Humidity;BMP_temperature;BMP_pressure;BME280_temperature;BME280_humidity;BME280_pressure;Samples;Min_cycle;Max_cycle;Signal;HPM_P1;HPM_P2
2024/01/11 00:01:26;;;;;;;1377.87;999.90;;;-5.10;99.90;;;;;;4992856;28;20038;-72
2024/01/11 00:03:51;;;;;;;1209.60;989.17;;;-5.10;99.90;;;;;;5000276;28;20070;-72
2024/01/11 00:06:17;;;;;;;;;;;-5.10;99.90;;;;;;5024516;28;20054;-72
2024/01/11 00:08:42;;;;;;;;;;;-5.10;99.90;;;;;;5009096;28;20010;-72
2024/01/11 00:11:08;;;;;;;;;;;-5.20;99.90;;;;;;5007967;28;20379;-72
2024/01/11 00:13:33;;;;;;;521.77;279.93;;;-5.20;99.90;;;;;;5018373;28;20461;-72
2024/01/11 00:15:59;;;;;;;510.97;295.50;;;-5.30;99.90;;;;;;5006992;28;20050;-72
2024/01/11 00:18:25;;;;;;;568.17;319.73;;;-5.30;99.90;;;;;;5013061;28;20056;-72
2024/01/11 00:20:51;;;;;;;589.23;328.83;;;-5.40;99.90;;;;;;5004574;28;20077;-72
2024/01/11 00:23:17;;;;;;;762.40;465.63;;;-5.50;99.90;;;;;;4996835;28;20129;-72
2024/01/11 00:25:42;;;;;;;300.00;230.30;;;-5.50;99.90;;;;;;5000550;28;20877;-72
2024/01/11 00:28:08;;;;;;;185.10;146.48;;;-5.50;99.90;;;;;;4997897;28;20640;-72
2024/01/11 00:30:34;;;;;;;201.13;148.20;;;-5.50;99.90;;;;;;4998834;28;20042;-72
2024/01/11 00:33:00;;;;;;;85.37;78.23;;;-5.50;99.90;;;;;;5005489;28;20104;-72
2024/01/11 00:35:26;;;;;;;230.10;165.57;;;-5.50;99.90;;;;;;5005319;28;20046;-72
2024/01/11 00:37:51;;;;;;;298.43;188.40;;;-5.50;99.90;;;;;;5011846;28;20037;-72
2024/01/11 00:40:17;;;;;;;374.67;215.10;;;-5.50;99.90;;;;;;4998568;28;20054;-72
2024/01/11 00:42:43;;;;;;;482.67;268.80;;;-5.60;99.90;;;;;;5020250;28;20054;-73
2024/01/11 00:45:09;;;;;;;843.10;445.67;;;-5.60;99.90;;;;;;4997456;28;20057;-72
2024/01/11 00:47:34;;;;;;;643.70;388.17;;;-5.60;99.90;;;;;;4988553;28;20527;-73
2024/01/11 00:50:00;;;;;;;790.63;650.50;;;-5.60;99.90;;;;;;4998673;28;21068;-72
2024/01/11 00:52:25;;;;;;;605.30;533.07;;;-5.60;99.90;;;;;;5013807;28;20065;-72
2024/01/11 00:54:51;;;;;;;604.77;419.07;;;-5.60;99.90;;;;;;4997456;28;20042;-72
2024/01/11 00:57:16;;;;;;;481.03;341.40;;;-5.60;99.90;;;;;;5002362;28;20585;-72
2024/01/11 00:59:42;;;;;;;655.90;514.60;;;-5.60;99.90;;;;;;4998822;28;20062;-73
2024/01/11 01:02:08;;;;;;;1535.20;999.90;;;-5.60;99.90;;;;;;4997131;28;20045;-72
2024/01/11 01:04:37;;;;;;;633.70;348.73;;;-5.60;99.90;;;;;;4994454;28;20050;-72
2024/01/11 01:07:02;;;;;;;667.60;354.67;;;-5.60;99.90;;;;;;5003300;28;20052;-72
2024/01/11 01:09:28;;;;;;;693.63;374.27;;;-5.60;99.90;;;;;;5000523;28;20300;-72
2024/01/11 01:11:54;;;;;;;809.17;515.37;;;-5.70;99.90;;;;;;4993695;28;20054;-72
2024/01/11 01:14:19;;;;;;;1425.77;999.90;;;-5.70;99.90;;;;;;4997911;28;20050;-72
2024/01/11 01:16:45;;;;;;;1324.70;999.90;;;-5.60;99.90;;;;;;4997008;28;20050;-72
2024/01/11 01:19:12;;;;;;;1276.95;999.90;;;-5.60;99.90;;;;;;4997531;28;20048;-72
2024/01/11 01:21:37;;;;;;;1110.77;997.27;;;-5.70;99.90;;;;;;4997196;28;20554;-72
2024/01/11 01:24:03;;;;;;;479.03;303.50;;;-5.60;99.90;;;;;;4997402;28;20309;-72
2024/01/11 01:26:28;;;;;;;775.20;409.63;;;-5.60;99.90;;;;;;5022801;28;20058;-72
2024/01/11 01:28:54;;;;;;;848.03;732.87;;;-5.60;99.90;;;;;;5004393;28;20054;-72
2024/01/11 01:31:21;;;;;;;512.90;280.57;;;-5.60;99.90;;;;;;5001535;28;20050;-72
2024/01/11 01:33:46;;;;;;;500.17;276.07;;;-5.60;99.90;;;;;;5004531;28;20055;-72
2024/01/11 01:36:12;;;;;;;446.23;252.33;;;-5.70;99.90;;;;;;5007941;28;20292;-72
2024/01/11 01:38:37;;;;;;;507.80;275.40;;;-5.60;99.90;;;;;;5004998;28;20518;-72
2024/01/11 01:41:03;;;;;;;620.43;331.97;;;-5.60;99.90;;;;;;5006240;28;20088;-72
2024/01/11 01:43:29;;;;;;;658.70;358.40;;;-5.60;99.90;;;;;;5001650;28;20074;-72
2024/01/11 01:45:55;;;;;;;547.03;301.63;;;-5.60;99.90;;;;;;4995038;28;20050;-72
2024/01/11 01:48:21;;;;;;;505.83;283.47;;;-5.70;99.90;;;;;;5006715;28;20054;-73
2024/01/11 01:50:50;;;;;;;533.47;290.23;;;-5.60;99.90;;;;;;5001508;28;20312;-72
2024/01/11 01:53:24;;;;;;;462.27;252.60;;;-5.70;99.90;;;;;;5000070;28;20703;-72
2024/01/11 01:55:52;;;;;;;646.70;341.07;;;-5.70;99.90;;;;;;4998456;28;20291;-72
2024/01/11 01:58:18;;;;;;;479.73;269.20;;;-5.70;99.90;;;;;;4998853;28;20306;-72
2024/01/11 02:00:45;;;;;;;519.53;286.73;;;-5.80;99.90;;;;;;4991603;28;20289;-72
2024/01/11 02:03:12;;;;;;;554.93;290.77;;;-5.80;99.90;;;;;;5016653;28;20873;-72
2024/01/11 02:05:38;;;;;;;520.07;286.93;;;-5.80;99.90;;;;;;5005819;28;20701;-72
2024/01/11 02:08:08;;;;;;;526.13;277.93;;;-5.80;99.90;;;;;;4998093;28;20300;-72
2024/01/11 02:10:35;;;;;;;343.60;202.27;;;-5.80;99.90;;;;;;4995275;28;20693;-72
2024/01/11 02:13:01;;;;;;;604.73;325.37;;;-5.80;99.90;;;;;;4992423;28;20053;-72
2024/01/11 02:15:26;;;;;;;641.43;330.20;;;-5.80;99.90;;;;;;4996635;28;20624;-72
2024/01/11 02:17:52;;;;;;;771.67;434.07;;;-5.80;99.90;;;;;;4994462;28;20045;-72
2024/01/11 02:20:17;;;;;;;687.67;370.67;;;-5.80;99.90;;;;;;5006806;28;20111;-72
2024/01/11 02:22:49;;;;;;;734.33;400.60;;;-5.90;99.90;;;;;;5005096;28;20085;-72
2024/01/11 02:25:15;;;;;;;693.47;347.83;;;-5.90;99.90;;;;;;5014220;28;20042;-72
2024/01/11 02:27:48;;;;;;;604.60;329.33;;;-5.90;99.90;;;;;;4991175;28;20297;-72
2024/01/11 02:30:14;;;;;;;652.03;353.73;;;-6.00;99.90;;;;;;5009094;28;20038;-72
2024/01/11 02:32:40;;;;;;;691.93;365.37;;;-6.00;99.90;;;;;;5013991;28;20344;-72
2024/01/11 02:35:06;;;;;;;686.50;365.77;;;-6.00;99.90;;;;;;5003301;28;20293;-73
2024/01/11 02:37:32;;;;;;;758.17;411.33;;;-6.10;99.90;;;;;;5021704;28;20373;-72
2024/01/11 02:39:58;;;;;;;732.47;393.77;;;-6.10;99.90;;;;;;4993529;28;20775;-72
2024/01/11 02:42:24;;;;;;;696.27;371.43;;;-6.10;99.90;;;;;;5017044;28;20050;-72
2024/01/11 02:44:49;;;;;;;714.20;375.53;;;-6.10;99.90;;;;;;5018882;28;20050;-72
2024/01/11 02:47:15;;;;;;;721.57;383.70;;;-6.10;99.90;;;;;;5009781;28;20054;-72
2024/01/11 02:49:40;;;;;;;731.93;396.23;;;-6.10;99.90;;;;;;4990101;28;20128;-72
2024/01/11 02:52:06;;;;;;;769.20;421.30;;;-6.10;99.90;;;;;;4995529;28;20054;-72
2024/01/11 02:54:32;;;;;;;776.73;426.17;;;-6.10;99.90;;;;;;5004910;28;20050;-72
2024/01/11 02:56:57;;;;;;;763.30;405.23;;;-6.10;99.90;;;;;;5019970;28;20042;-72
2024/01/11 02:59:23;;;;;;;733.40;380.00;;;-6.10;99.90;;;;;;4994496;28;20042;-72
2024/01/11 03:01:49;;;;;;;758.87;414.57;;;-6.10;99.90;;;;;;4991852;28;20050;-72
2024/01/11 03:04:15;;;;;;;725.00;387.87;;;-6.20;99.90;;;;;;4992217;28;20301;-72
2024/01/11 03:06:41;;;;;;;670.33;351.83;;;-6.10;99.90;;;;;;4998699;28;20043;-72
2024/01/11 03:09:06;;;;;;;650.33;344.03;;;-6.20;99.90;;;;;;5007385;28;20052;-73
2024/01/11 03:11:32;;;;;;;645.13;346.27;;;-6.20;99.90;;;;;;5004553;28;20050;-73
2024/01/11 03:13:58;;;;;;;632.80;341.60;;;-6.20;99.90;;;;;;5005007;28;20466;-72
2024/01/11 03:16:23;;;;;;;686.30;356.97;;;-6.20;99.90;;;;;;4994447;28;20046;-72
2024/01/11 03:18:49;;;;;;;795.27;432.47;;;-6.30;99.90;;;;;;5006964;28;20062;-72
2024/01/11 03:21:15;;;;;;;828.10;463.40;;;-6.30;99.90;;;;;;5008642;28;20499;-72
2024/01/11 03:23:41;;;;;;;818.73;469.77;;;-6.30;99.90;;;;;;5005373;28;20454;-72
2024/01/11 03:26:17;;;;;;;700.83;383.10;;;-6.30;99.90;;;;;;5008019;28;20289;-72
2024/01/11 03:28:43;;;;;;;638.90;349.80;;;-6.20;99.90;;;;;;4999659;28;20056;-72
2024/01/11 03:31:10;;;;;;;835.93;444.77;;;-6.30;99.90;;;;;;5023799;28;20377;-72
2024/01/11 03:33:35;;;;;;;778.30;432.33;;;-6.30;99.90;;;;;;5005728;28;20395;-72
2024/01/11 03:36:12;;;;;;;857.27;440.87;;;-6.30;99.90;;;;;;5006654;28;20384;-72
2024/01/11 03:38:38;;;;;;;891.40;475.17;;;-6.30;99.90;;;;;;4995773;28;20053;-72
2024/01/11 03:41:10;;;;;;;868.57;456.03;;;-6.30;99.90;;;;;;5007981;28;20296;-72
2024/01/11 03:43:38;;;;;;;807.97;435.93;;;-6.30;99.90;;;;;;5006779;28;20137;-72
2024/01/11 03:46:04;;;;;;;;;;;-6.30;99.90;;;;;;4998703;28;20367;-72
2024/01/11 03:48:31;;;;;;;842.23;435.67;;;-6.30;99.90;;;;;;5008012;28;20444;-72
2024/01/11 03:50:57;;;;;;;819.50;432.43;;;-6.30;99.90;;;;;;5014482;28;20085;-72
2024/01/11 03:53:23;;;;;;;772.70;419.27;;;-6.30;99.90;;;;;;5003795;28;20281;-72
2024/01/11 03:55:48;;;;;;;749.80;413.10;;;-6.30;99.90;;;;;;5005718;28;20366;-72
2024/01/11 03:58:14;;;;;;;781.33;433.50;;;-6.30;99.90;;;;;;5008214;28;20129;-72
2024/01/11 04:00:40;;;;;;;737.93;384.87;;;-6.40;99.90;;;;;;5001350;28;20048;-72
2024/01/11 04:03:06;;;;;;;669.40;352.40;;;-6.40;99.90;;;;;;5000942;28;20046;-72
2024/01/11 04:05:32;;;;;;;592.93;317.23;;;-6.40;99.90;;;;;;4993650;28;20077;-73
2024/01/11 04:07:57;;;;;;;577.53;308.33;;;-6.40;99.90;;;;;;4992755;28;20337;-73
2024/01/11 04:10:23;;;;;;;577.83;309.30;;;-6.50;99.90;;;;;;4998989;28;20047;-72
2024/01/11 04:12:49;;;;;;;660.57;360.07;;;-6.40;99.90;;;;;;4990817;28;20130;-72
2024/01/11 04:15:14;;;;;;;752.07;386.03;;;-6.50;99.90;;;;;;5019457;28;20034;-72
2024/01/11 04:17:40;;;;;;;729.90;369.00;;;-6.50;99.90;;;;;;4996032;28;20042;-72
2024/01/11 04:20:08;;;;;;;659.70;339.73;;;-6.50;99.90;;;;;;4998533;28;20082;-72
2024/01/11 04:22:34;;;;;;;716.10;366.23;;;-6.50;99.90;;;;;;4999536;28;20161;-72
2024/01/11 04:25:00;;;;;;;655.47;344.67;;;-6.60;99.90;;;;;;4991720;28;20129;-72
2024/01/11 04:27:25;;;;;;;683.50;356.00;;;-6.60;99.90;;;;;;4998018;28;20149;-72
2024/01/11 04:29:51;;;;;;;802.23;464.33;;;-6.60;99.90;;;;;;4989126;28;20635;-72
2024/01/11 04:32:17;;;;;;;786.63;404.03;;;-6.60;99.90;;;;;;5004339;28;20460;-72
2024/01/11 04:34:42;;;;;;;776.67;420.60;;;-6.60;99.90;;;;;;4999067;28;20526;-72
2024/01/11 04:37:08;;;;;;;745.63;390.40;;;-6.60;99.90;;;;;;5001049;28;20045;-72
2024/01/11 04:39:34;;;;;;;842.97;459.17;;;-6.60;99.90;;;;;;5003207;28;20447;-72
2024/01/11 04:42:00;;;;;;;852.27;449.83;;;-6.60;99.90;;;;;;4995539;28;20317;-72
2024/01/11 04:44:26;;;;;;;711.73;361.70;;;-6.60;99.90;;;;;;4991446;28;20050;-72
2024/01/11 04:46:53;;;;;;;701.20;360.77;;;-6.70;99.90;;;;;;5002832;28;20291;-72
2024/01/11 04:49:18;;;;;;;671.87;344.07;;;-6.60;99.90;;;;;;5001117;28;20121;-72
2024/01/11 04:51:44;;;;;;;803.33;424.33;;;-6.60;99.90;;;;;;5012738;28;20454;-72
2024/01/11 04:54:09;;;;;;;839.37;454.07;;;-6.60;99.90;;;;;;5001989;28;20046;-72
2024/01/11 04:56:35;;;;;;;792.47;438.00;;;-6.60;99.90;;;;;;5017882;28;20190;-72
2024/01/11 04:59:00;;;;;;;760.47;396.20;;;-6.50;99.90;;;;;;5003886;28;20811;-72
2024/01/11 05:01:26;;;;;;;750.27;391.33;;;-6.50;99.90;;;;;;4993446;28;20582;-72
2024/01/11 05:03:52;;;;;;;715.13;373.20;;;-6.50;99.90;;;;;;5003672;28;20045;-72
2024/01/11 05:06:21;;;;;;;912.93;466.13;;;-6.50;99.90;;;;;;5003129;28;20038;-72
2024/01/11 05:08:49;;;;;;;779.70;411.13;;;-6.50;99.90;;;;;;5003710;28;20057;-72
2024/01/11 05:11:24;;;;;;;704.73;363.77;;;-6.50;99.90;;;;;;5001415;28;20439;-72
2024/01/11 05:13:51;;;;;;;743.77;390.37;;;-6.50;99.90;;;;;;4996230;28;20328;-72
2024/01/11 05:16:22;;;;;;;872.87;427.27;;;-6.40;99.90;;;;;;5010409;28;20656;-72
2024/01/11 05:18:48;;;;;;;768.63;410.73;;;-6.30;99.90;;;;;;4995149;28;20762;-73
2024/01/11 05:21:14;;;;;;;775.97;391.70;;;-6.20;99.90;;;;;;5012454;28;20316;-72
2024/01/11 05:23:41;;;;;;;858.50;422.57;;;-6.10;99.90;;;;;;5002858;28;20807;-72
2024/01/11 05:26:08;;;;;;;830.95;411.63;;;-6.00;99.90;;;;;;4996226;28;20053;-72
2024/01/11 05:28:34;;;;;;;816.90;423.50;;;-6.00;99.90;;;;;;5000529;28;20586;-73
2024/01/11 05:30:59;;;;;;;773.00;383.20;;;-5.90;99.90;;;;;;5004633;28;20304;-72
2024/01/11 05:33:25;;;;;;;736.87;379.47;;;-5.90;99.90;;;;;;5003844;28;20085;-72
2024/01/11 05:35:51;;;;;;;698.00;360.40;;;-5.80;99.90;;;;;;5001963;28;20144;-72
2024/01/11 05:38:17;;;;;;;633.77;330.57;;;-5.80;99.90;;;;;;4989765;28;20064;-72
2024/01/11 05:40:43;;;;;;;711.70;354.83;;;-5.70;99.90;;;;;;5005626;28;20786;-72
2024/01/11 05:43:09;;;;;;;872.67;451.60;;;-5.60;99.90;;;;;;5011251;28;20050;-72
2024/01/11 05:45:34;;;;;;;756.93;400.53;;;-5.50;99.90;;;;;;5008315;28;20049;-72
2024/01/11 05:48:00;;;;;;;744.78;391.75;;;-5.50;99.90;;;;;;5000525;28;20399;-72
2024/01/11 05:50:26;;;;;;;805.43;431.67;;;-5.50;99.90;;;;;;5010648;28;20058;-72
2024/01/11 05:52:53;;;;;;;682.73;365.77;;;-5.40;99.90;;;;;;5006975;28;20120;-72
2024/01/11 05:55:19;;;;;;;697.78;385.05;;;-5.30;99.90;;;;;;5000343;28;20119;-72
2024/01/11 05:57:46;;;;;;;150.30;126.77;;;-5.20;99.90;;;;;;5005678;28;20045;-72
2024/01/11 06:00:12;;;;;;;431.53;255.30;;;-5.20;99.90;;;;;;4998496;28;20093;-72
2024/01/11 06:02:38;;;;;;;;;;;-5.10;99.90;;;;;;5020564;28;20068;-73
2024/01/11 06:05:04;;;;;;;755.30;391.20;;;-5.00;99.90;;;;;;5007039;28;20973;-73
2024/01/11 06:07:29;;;;;;;451.73;265.33;;;-5.00;99.90;;;;;;5002483;28;20042;-73
2024/01/11 06:09:55;;;;;;;811.80;436.97;;;-4.90;99.90;;;;;;5006217;28;20046;-73
2024/01/11 06:12:20;;;;;;;787.57;414.60;;;-4.90;99.90;;;;;;4996305;28;20050;-73
2024/01/11 06:14:46;;;;;;;897.73;476.30;;;-4.80;99.90;;;;;;4994245;28;20160;-72
2024/01/11 06:17:12;;;;;;;937.17;698.13;;;-4.70;99.90;;;;;;5003306;28;20053;-73
2024/01/11 06:19:41;;;;;;;601.43;354.90;;;-4.60;99.90;;;;;;4989913;28;20050;-73
2024/01/11 06:22:06;;;;;;;580.87;313.20;;;-4.60;99.90;;;;;;4997256;28;20045;-72
2024/01/11 06:24:32;;;;;;;666.47;349.00;;;-4.50;99.90;;;;;;4997400;28;21006;-73
2024/01/11 06:26:57;;;;;;;682.40;358.20;;;-4.50;99.90;;;;;;4995646;28;20096;-73
2024/01/11 06:29:23;;;;;;;428.97;239.90;;;-4.40;99.90;;;;;;5003128;28;20428;-73
2024/01/11 06:31:49;;;;;;;380.87;219.37;;;-4.40;99.90;;;;;;4991963;28;20041;-73
2024/01/11 06:34:14;;;;;;;468.00;256.97;;;-4.20;99.90;;;;;;4994515;28;20038;-73
2024/01/11 06:36:40;;;;;;;368.13;212.83;;;-4.20;99.90;;;;;;4995987;28;20046;-73
2024/01/11 06:39:06;;;;;;;352.33;201.83;;;-4.20;99.90;;;;;;5000194;28;20103;-73
2024/01/11 06:41:31;;;;;;;369.80;215.63;;;-4.10;99.90;;;;;;4992435;28;20054;-73
2024/01/11 06:43:57;;;;;;;356.87;204.90;;;-4.00;99.90;;;;;;4994633;28;20061;-73
2024/01/11 06:46:23;;;;;;;313.03;189.27;;;-4.00;99.90;;;;;;5010427;28;20483;-73
2024/01/11 06:48:49;;;;;;;266.02;193.95;;;-4.00;99.90;;;;;;4997677;28;20037;-73
2024/01/11 06:51:21;;;;;;;368.93;214.07;;;-3.90;99.90;;;;;;4994358;28;20038;-73
2024/01/11 06:53:47;;;;;;;311.92;194.45;;;-3.90;99.90;;;;;;4999507;28;20519;-73
2024/01/11 06:56:17;;;;;;;401.90;226.67;;;-3.80;99.90;;;;;;5004485;28;20085;-73
2024/01/11 06:58:44;;;;;;;128.83;115.17;;;-3.70;99.90;;;;;;5002575;28;20488;-73
2024/01/11 07:01:10;;;;;;;;;;;-3.70;99.90;;;;;;5003800;28;20423;-73
2024/01/11 07:03:35;;;;;;;;;;;-3.60;99.90;;;;;;5002134;28;20488;-73
2024/01/11 07:06:02;;;;;;;413.15;204.73;;;-3.60;99.90;;;;;;5019360;28;20472;-73
2024/01/11 07:08:28;;;;;;;246.48;166.90;;;-3.60;99.90;;;;;;5008515;28;20049;-73
2024/01/11 07:10:54;;;;;;;248.00;161.15;;;-3.50;99.90;;;;;;5008445;28;20050;-73
2024/01/11 07:13:19;;;;;;;279.60;172.27;;;-3.50;99.90;;;;;;5004821;28;20050;-73
2024/01/11 07:15:45;;;;;;;296.13;176.65;;;-3.40;99.90;;;;;;5008044;28;20060;-73
2024/01/11 07:18:11;;;;;;;221.67;175.53;;;-3.40;99.90;;;;;;4999913;28;20111;-73
2024/01/11 07:20:37;;;;;;;268.70;171.82;;;-3.40;99.90;;;;;;5001240;28;20049;-73
2024/01/11 07:23:02;;;;;;;;;;;-3.30;99.90;;;;;;5003455;28;20455;-73
2024/01/11 07:25:28;;;;;;;572.33;275.40;;;-3.30;99.90;;;;;;5012024;28;20486;-73
2024/01/11 07:27:53;;;;;;;271.33;167.27;;;-3.20;99.90;;;;;;4993761;28;20522;-73
2024/01/11 07:30:19;;;;;;;260.97;165.27;;;-3.20;99.90;;;;;;4999795;28;20046;-73
2024/01/11 07:32:45;;;;;;;220.45;152.20;;;-3.20;99.90;;;;;;4991043;28;20038;-73
2024/01/11 07:35:12;;;;;;;180.23;136.07;;;-3.20;99.90;;;;;;5004044;28;20049;-73
2024/01/11 07:37:38;;;;;;;188.77;139.40;;;-3.10;99.90;;;;;;4997188;28;20054;-73
2024/01/11 07:40:10;;;;;;;223.55;155.85;;;-3.10;99.90;;;;;;5000124;28;20049;-73
2024/01/11 07:42:40;;;;;;;215.10;150.02;;;-3.00;99.90;;;;;;5004170;28;20069;-73
2024/01/11 07:45:06;;;;;;;251.93;165.63;;;-3.00;99.90;;;;;;5016073;28;20069;-73
2024/01/11 07:47:33;;;;;;;179.60;133.23;;;-3.00;99.90;;;;;;4993389;28;20049;-73
2024/01/11 07:49:59;;;;;;;220.43;151.60;;;-3.00;99.90;;;;;;4995362;28;20066;-73
2024/01/11 07:52:24;;;;;;;167.27;129.60;;;-2.90;99.90;;;;;;4998112;28;20058;-73
2024/01/11 07:54:50;;;;;;;;;;;-2.90;99.90;;;;;;4999986;28;20491;-73
2024/01/11 07:57:16;;;;;;;;;;;-2.90;99.90;;;;;;5000704;28;19926;-73
2024/01/11 07:59:41;;;;;;;;;;;-2.90;99.90;;;;;;5013536;28;20379;-73
2024/01/11 08:02:07;;;;;;;246.43;154.20;;;-2.90;99.90;;;;;;5000315;28;20490;-73
2024/01/11 08:04:32;;;;;;;;;;;-2.80;99.90;;;;;;4998207;28;20053;-73
2024/01/11 08:06:59;;;;;;;179.40;135.10;;;-2.80;99.90;;;;;;5006733;28;20518;-73
2024/01/11 08:09:26;;;;;;;209.43;148.25;;;-2.70;99.90;;;;;;4997323;28;20507;-73
2024/01/11 08:11:54;;;;;;;95.53;87.63;;;-2.70;99.90;;;;;;4994776;28;20117;-73
2024/01/11 08:14:20;;;;;;;;;;;-2.70;99.90;;;;;;5000059;28;20108;-73
2024/01/11 08:16:45;;;;;;;;;;;-2.60;99.90;;;;;;5023414;28;20087;-73
2024/01/11 08:19:13;;;;;;;;;;;-2.60;99.90;;;;;;4999574;28;20299;-73
2024/01/11 08:21:39;;;;;;;945.10;850.45;;;-2.60;99.90;;;;;;5011443;28;20491;-73
2024/01/11 08:24:06;;;;;;;;;;;-2.60;99.90;;;;;;4988333;28;20057;-73
2024/01/11 08:26:32;;;;;;;;;;;-2.60;99.90;;;;;;5006483;28;19948;-73
2024/01/11 08:28:57;;;;;;;;;;;-2.50;99.90;;;;;;5006614;28;19960;-73
2024/01/11 08:31:23;;;;;;;;;;;-2.50;99.90;;;;;;4998605;28;19969;-73
2024/01/11 08:33:49;;;;;;;;;;;-2.50;99.90;;;;;;5021274;28;19946;-73
2024/01/11 08:36:15;;;;;;;;;;;-2.40;99.90;;;;;;5000240;28;19988;-73
2024/01/11 08:38:41;;;;;;;;;;;-2.40;99.90;;;;;;4997876;28;20004;-73
2024/01/11 08:41:06;;;;;;;;;;;-2.40;99.90;;;;;;5007646;28;20482;-73
2024/01/11 08:43:32;;;;;;;;;;;-2.30;99.90;;;;;;5001480;28;19956;-73
2024/01/11 08:45:58;;;;;;;;;;;-2.30;99.90;;;;;;5005683;28;20039;-73
2024/01/11 08:48:23;;;;;;;;;;;-2.30;99.90;;;;;;5020892;28;19960;-74
2024/01/11 08:50:49;;;;;;;;;;;-2.20;99.90;;;;;;4998964;28;20374;-77
2024/01/11 08:53:15;;;;;;;;;;;-2.20;99.90;;;;;;5013593;28;19959;-75
2024/01/11 08:55:41;;;;;;;;;;;-2.10;99.90;;;;;;5007324;28;20385;-74
2024/01/11 08:58:07;;;;;;;;;;;-2.10;99.90;;;;;;5013603;28;19999;-73
2024/01/11 09:00:32;;;;;;;;;;;-2.00;99.90;;;;;;5004420;28;19945;-73
2024/01/11 09:02:58;;;;;;;382.23;212.73;;;-2.00;99.90;;;;;;5004368;28;20574;-73
2024/01/11 09:05:23;;;;;;;;;;;-1.90;99.90;;;;;;5002687;28;20129;-73
2024/01/11 09:07:49;;;;;;;;;;;-1.90;99.90;;;;;;5006817;28;19947;-73
2024/01/11 09:10:14;;;;;;;403.50;220.83;;;-1.80;99.90;;;;;;5004464;28;20948;-73
2024/01/11 09:12:40;;;;;;;265.53;163.50;;;-1.80;99.90;;;;;;4995923;28;20355;-73
2024/01/11 09:15:06;;;;;;;;;;;-1.70;99.90;;;;;;5005042;28;20669;-73
2024/01/11 09:17:32;;;;;;;645.78;497.63;;;-1.70;99.90;;;;;;4996423;28;20497;-73
2024/01/11 09:19:58;;;;;;;509.02;232.10;;;-1.60;99.90;;;;;;5006189;28;20132;-73
2024/01/11 09:22:23;;;;;;;493.17;222.60;;;-1.60;99.90;;;;;;5004304;28;20121;-73
2024/01/11 09:24:49;;;;;;;308.07;160.03;;;-1.50;99.90;;;;;;4998554;28;20044;-73
2024/01/11 09:27:15;;;;;;;;;;;-1.50;99.90;;;;;;4998222;28;20046;-73
2024/01/11 09:29:45;;;;;;;478.00;211.32;;;-1.40;99.90;;;;;;5004892;28;21442;-73
2024/01/11 09:32:11;;;;;;;359.63;183.50;;;-1.40;99.90;;;;;;5005611;28;20034;-73
2024/01/11 09:34:37;;;;;;;333.42;180.30;;;-1.30;99.90;;;;;;5003287;28;20446;-73
2024/01/11 09:37:03;;;;;;;;;;;-1.30;99.90;;;;;;5005157;28;20104;-73
2024/01/11 09:39:29;;;;;;;1169.72;999.90;;;-1.20;99.90;;;;;;5002338;28;20473;-73
2024/01/11 09:42:02;;;;;;;839.77;753.93;;;-1.20;99.90;;;;;;4998119;28;20724;-73
2024/01/11 09:44:29;;;;;;;872.73;786.43;;;-1.10;99.90;;;;;;5005926;28;20865;-73
2024/01/11 09:46:57;;;;;;;925.83;837.70;;;-1.00;99.90;;;;;;5003271;28;20054;-73
2024/01/11 09:49:23;;;;;;;954.67;865.13;;;-1.00;99.90;;;;;;5003868;28;20060;-73
2024/01/11 09:51:50;;;;;;;945.17;855.63;;;-0.90;99.90;;;;;;5004922;28;20042;-73
2024/01/11 09:54:19;;;;;;;885.33;798.47;;;-0.90;99.90;;;;;;5022814;28;20053;-73
2024/01/11 09:56:46;;;;;;;882.27;796.73;;;-0.80;99.90;;;;;;5002945;28;20691;-73
2024/01/11 09:59:12;;;;;;;791.97;709.80;;;-0.80;99.90;;;;;;5005862;28;20041;-73
2024/01/11 10:01:38;;;;;;;766.43;685.67;;;-0.70;99.90;;;;;;5006079;28;20046;-73
2024/01/11 10:04:04;;;;;;;757.47;678.40;;;-0.60;99.90;;;;;;5003952;28;20890;-73
2024/01/11 10:06:33;;;;;;;675.70;430.70;;;-0.60;99.90;;;;;;5005260;28;20060;-74
2024/01/11 10:08:59;;;;;;;594.20;276.03;;;-0.50;99.90;;;;;;5006234;28;20050;-75
2024/01/11 10:11:25;;;;;;;624.40;330.47;;;-0.50;99.90;;;;;;4999703;28;20056;-75
2024/01/11 10:13:57;;;;;;;606.63;317.37;;;-0.40;99.90;;;;;;5004698;28;20057;-75
2024/01/11 10:16:22;;;;;;;428.80;205.00;;;-0.40;99.90;;;;;;5004494;28;20077;-76
2024/01/11 10:18:48;;;;;;;429.77;205.83;;;-0.40;99.90;;;;;;5009073;28;20050;-76
2024/01/11 10:21:13;;;;;;;408.43;192.07;;;-0.30;99.90;;;;;;5006139;28;20132;-76
2024/01/11 10:23:39;;;;;;;;;;;-0.20;99.90;;;;;;5007144;28;20050;-76
2024/01/11 10:26:07;;;;;;;503.17;232.47;;;-0.20;99.90;;;;;;5020743;28;20468;-75
2024/01/11 10:28:37;;;;;;;506.40;240.87;;;-0.20;99.90;;;;;;5005132;28;20311;-75
2024/01/11 10:31:06;;;;;;;533.57;253.27;;;-0.10;99.90;;;;;;4996779;28;20305;-75
2024/01/11 10:33:33;;;;;;;582.60;277.20;;;-0.10;99.90;;;;;;5008993;28;20084;-75
2024/01/11 10:36:00;;;;;;;632.80;297.97;;;-0.10;99.90;;;;;;5024990;28;20049;-75
2024/01/11 10:38:26;;;;;;;652.20;316.17;;;0.00;99.90;;;;;;5014990;28;20038;-76
2024/01/11 10:40:55;;;;;;;568.67;277.87;;;0.00;99.90;;;;;;5006832;28;20054;-76
2024/01/11 10:43:21;;;;;;;;;;;0.00;99.90;;;;;;4995376;28;20050;-76
2024/01/11 10:45:49;;;;;;;572.30;278.83;;;0.10;99.90;;;;;;5008293;28;20330;-76
2024/01/11 10:48:15;;;;;;;592.50;278.55;;;0.10;99.90;;;;;;5012161;28;20037;-76
2024/01/11 10:50:45;;;;;;;591.20;284.03;;;0.10;99.90;;;;;;5006303;28;20054;-75
2024/01/11 10:53:17;;;;;;;637.70;313.00;;;0.10;99.90;;;;;;5008892;28;20499;-76
2024/01/11 10:55:44;;;;;;;647.27;309.60;;;0.20;99.90;;;;;;4995576;28;20137;-76
2024/01/11 10:58:11;;;;;;;661.63;324.03;;;0.20;99.90;;;;;;4998855;28;20088;-76
2024/01/11 11:00:37;;;;;;;636.47;296.83;;;0.20;99.90;;;;;;4995395;28;20575;-76
2024/01/11 11:03:06;;;;;;;627.77;297.37;;;0.30;99.90;;;;;;5006007;28;20073;-76
2024/01/11 11:05:35;;;;;;;604.10;288.07;;;0.30;99.90;;;;;;4998421;28;20077;-76
2024/01/11 11:08:01;;;;;;;;;;;0.30;99.90;;;;;;5000927;28;20475;-75
2024/01/11 11:10:28;;;;;;;612.83;292.87;;;0.40;99.90;;;;;;5002781;28;19992;-76
2024/01/11 11:12:55;;;;;;;622.77;302.80;;;0.40;99.90;;;;;;4992797;28;20078;-75
2024/01/11 11:15:23;;;;;;;622.43;297.90;;;0.40;99.90;;;;;;5004554;28;20476;-75
2024/01/11 11:17:49;;;;;;;672.83;324.40;;;0.40;99.90;;;;;;5011342;28;20820;-75
2024/01/11 11:20:16;;;;;;;706.20;402.47;;;0.40;99.90;;;;;;4996087;28;20096;-75
2024/01/11 11:22:42;;;;;;;714.07;358.07;;;0.40;99.90;;;;;;4996985;28;20054;-75
2024/01/11 11:25:24;;;;;;;603.13;302.93;;;0.50;99.90;;;;;;4986604;28;20057;-75
2024/01/11 11:27:50;;;;;;;549.00;262.80;;;0.50;99.90;;;;;;4984781;28;20096;-76
2024/01/11 11:30:19;;;;;;;528.80;254.50;;;0.50;99.90;;;;;;5010203;28;20081;-75
2024/01/11 11:32:46;;;;;;;539.63;264.10;;;0.60;99.90;;;;;;5005410;28;20041;-75
2024/01/11 11:35:11;;;;;;;556.93;267.63;;;0.60;99.90;;;;;;5024931;28;20046;-75
2024/01/11 11:37:38;;;;;;;553.53;269.10;;;0.60;99.90;;;;;;5023977;28;20060;-75
2024/01/11 11:40:10;;;;;;;550.43;265.30;;;0.60;99.90;;;;;;5007339;28;20050;-75
2024/01/11 11:42:36;;;;;;;561.43;262.97;;;0.70;99.90;;;;;;4997829;28;20050;-76
2024/01/11 11:45:06;;;;;;;611.77;293.30;;;0.70;99.90;;;;;;5009223;28;20507;-76
2024/01/11 11:47:37;;;;;;;799.37;420.50;;;0.70;99.90;;;;;;5000182;28;20049;-76
2024/01/11 11:50:10;;;;;;;774.77;423.60;;;0.70;99.90;;;;;;5001686;28;20053;-76
2024/01/11 11:52:41;;;;;;;837.23;742.93;;;0.80;99.90;;;;;;5006194;28;20113;-76
2024/01/11 11:55:08;;;;;;;592.23;280.47;;;0.80;99.90;;;;;;5008417;28;20749;-76
2024/01/11 11:57:35;;;;;;;611.60;355.47;;;0.80;99.90;;;;;;5003131;28;20511;-76
2024/01/11 12:00:07;;;;;;;508.20;255.10;;;0.80;99.90;;;;;;5004965;28;20057;-76
2024/01/11 12:02:35;;;;;;;530.43;250.30;;;0.80;99.90;;;;;;5008252;28;20049;-76
2024/01/11 12:05:01;;;;;;;611.63;302.98;;;0.90;99.90;;;;;;5000017;28;20511;-76
2024/01/11 12:07:28;;;;;;;628.00;363.83;;;0.90;99.90;;;;;;5008010;28;20049;-76
2024/01/11 12:09:55;;;;;;;713.33;580.57;;;0.90;99.90;;;;;;5000710;28;20038;-76
2024/01/11 12:12:21;;;;;;;758.00;666.00;;;1.00;99.90;;;;;;4994939;28;20058;-76
2024/01/11 12:14:48;;;;;;;1045.13;952.23;;;1.00;99.90;;;;;;5002981;28;20549;-76
2024/01/11 12:17:14;;;;;;;986.47;896.83;;;1.00;99.90;;;;;;5000602;28;20038;-76
2024/01/11 12:19:40;;;;;;;1001.07;909.70;;;1.00;99.90;;;;;;5005018;28;20048;-77